createdAt,value
2018-12-07T00:01:18.778Z,76.01
2018-12-07T00:03:48.497Z,76.12
2018-12-07T00:06:19.124Z,75.66
2018-12-07T00:08:48.516Z,75.70
2018-12-07T00:11:18.244Z,75.70
2018-12-07T00:13:48.080Z,75.88
2018-12-07T00:16:17.508Z,75.55
2018-12-07T00:18:47.088Z,75.54
2018-12-07T00:21:16.550Z,75.13
2018-12-07T00:23:46.135Z,75.92
2018-12-07T00:26:15.529Z,75.77
2018-12-07T00:28:45.096Z,75.21
2018-12-07T00:31:14.397Z,74.86
2018-12-07T00:33:43.888Z,75.02
2018-12-07T00:36:13.557Z,75.32
2018-12-07T00:38:42.945Z,75.00
2018-12-07T00:41:12.568Z,75.19
2018-12-07T00:43:42.092Z,75.82
2018-12-07T00:46:11.772Z,76.26
2018-12-07T00:48:41.312Z,76.21
2018-12-07T00:51:11.061Z,76.43
2018-12-07T00:53:40.664Z,76.71
2018-12-07T00:56:09.999Z,76.96
2018-12-07T00:58:40.356Z,76.67
2018-12-07T01:01:09.641Z,76.15
2018-12-07T01:03:39.089Z,75.73
2018-12-07T01:06:08.665Z,74.79
2018-12-07T01:08:38.461Z,74.51
2018-12-07T01:11:07.938Z,74.11
2018-12-07T01:13:37.385Z,74.27
2018-12-07T01:16:06.900Z,74.29
2018-12-07T01:18:36.295Z,74.61
2018-12-07T01:21:05.866Z,74.86
2018-12-07T01:23:35.361Z,75.42
2018-12-07T01:26:05.070Z,75.87
2018-12-07T01:28:34.379Z,76.00
2018-12-07T01:31:04.010Z,76.48
2018-12-07T01:33:33.469Z,76.32
2018-12-07T01:36:02.856Z,76.81
2018-12-07T01:38:32.583Z,77.43
2018-12-07T01:41:02.018Z,77.80
2018-12-07T01:43:31.623Z,78.33
2018-12-07T01:46:01.288Z,77.72
2018-12-07T01:48:30.525Z,77.19
2018-12-07T01:51:00.187Z,76.20
2018-12-07T01:53:29.529Z,76.44
2018-12-07T01:55:59.056Z,76.41
2018-12-07T01:58:28.583Z,76.35
2018-12-07T02:00:58.303Z,76.06
2018-12-07T02:03:27.591Z,75.93
2018-12-07T02:05:57.024Z,77.09
2018-12-07T02:08:26.866Z,78.33
2018-12-07T02:10:56.387Z,79.19
2018-12-07T02:13:25.919Z,79.97
2018-12-07T02:15:55.485Z,80.87
2018-12-07T02:18:24.832Z,80.43
2018-12-07T02:20:54.076Z,80.93
2018-12-07T02:23:23.705Z,81.00
2018-12-07T02:25:53.279Z,81.91
2018-12-07T02:28:22.777Z,82.30
2018-12-07T02:30:52.416Z,82.37
2018-12-07T02:33:22.117Z,82.30
2018-12-07T02:35:51.903Z,81.91
2018-12-07T02:38:21.200Z,81.00
2018-12-07T02:40:50.608Z,80.88
2018-12-07T02:43:19.957Z,81.29
2018-12-07T02:45:49.442Z,81.30
2018-12-07T02:48:19.084Z,80.69
2018-12-07T02:50:48.539Z,80.46
2018-12-07T02:53:18.073Z,79.37
2018-12-07T02:55:47.729Z,79.02
2018-12-07T02:58:17.063Z,78.96
2018-12-07T03:00:46.772Z,78.98
2018-12-07T03:03:16.521Z,77.48
2018-12-07T03:05:45.817Z,77.43
2018-12-07T03:08:15.718Z,78.02
2018-12-07T03:10:45.152Z,77.96
2018-12-07T03:13:14.782Z,78.86
2018-12-07T03:15:44.548Z,79.11
2018-12-07T03:18:29.403Z,79.04
2018-12-07T03:20:59.318Z,79.64
2018-12-07T03:23:28.795Z,79.14
2018-12-07T03:25:58.062Z,78.20
2018-12-07T03:28:28.036Z,79.11
2018-12-07T03:30:57.487Z,79.11
2018-12-07T03:33:26.890Z,79.15
2018-12-07T03:35:56.137Z,79.23
2018-12-07T03:38:26.431Z,78.99
2018-12-07T03:40:56.280Z,79.13
2018-12-07T03:43:25.893Z,79.16
2018-12-07T03:45:55.346Z,79.02
2018-12-07T03:48:24.982Z,77.50
2018-12-07T03:50:54.582Z,77.51
2018-12-07T03:53:24.626Z,77.54
2018-12-07T03:55:54.006Z,77.31
2018-12-07T03:58:24.402Z,77.60
2018-12-07T04:00:54.485Z,78.07
2018-12-07T04:03:24.032Z,77.55
2018-12-07T04:05:53.353Z,77.94
2018-12-07T04:08:22.993Z,77.19
2018-12-07T04:10:52.396Z,77.08
2018-12-07T04:13:21.805Z,77.33
2018-12-07T04:15:51.827Z,77.79
2018-12-07T04:18:21.236Z,79.01
2018-12-07T04:20:50.708Z,79.39
2018-12-07T04:23:20.552Z,78.91
2018-12-07T04:25:49.852Z,78.55
2018-12-07T04:28:21.619Z,79.79
2018-12-07T04:30:51.456Z,79.94
2018-12-07T04:33:20.864Z,79.85
2018-12-07T04:35:50.450Z,80.33
2018-12-07T04:38:20.011Z,80.63
2018-12-07T04:40:49.618Z,80.20
2018-12-07T04:43:19.253Z,80.18
2018-12-07T04:45:48.918Z,80.53
2018-12-07T04:48:18.686Z,79.92
2018-12-07T04:50:48.247Z,78.73
2018-12-07T04:53:17.747Z,78.29
2018-12-07T04:55:47.568Z,78.35
2018-12-07T04:58:17.047Z,78.06
2018-12-07T05:00:46.376Z,77.87
2018-12-07T05:03:16.232Z,77.94
2018-12-07T05:05:45.688Z,78.10
2018-12-07T05:08:15.212Z,78.34
2018-12-07T05:10:44.818Z,79.43
2018-12-07T05:13:14.361Z,79.17
2018-12-07T05:15:44.044Z,79.47
2018-12-07T05:18:13.538Z,79.99
2018-12-07T05:20:43.171Z,80.67
2018-12-07T05:23:12.755Z,81.10
2018-12-07T05:25:42.629Z,80.53
2018-12-07T05:28:11.981Z,80.90
2018-12-07T05:30:41.307Z,80.10
2018-12-07T05:33:11.008Z,80.40
2018-12-07T05:35:40.469Z,80.06
2018-12-07T05:38:09.777Z,80.06
2018-12-07T05:40:39.405Z,80.15
2018-12-07T05:43:09.120Z,80.54
2018-12-07T05:45:38.725Z,80.46
2018-12-07T05:48:08.315Z,81.58
2018-12-07T05:50:38.069Z,81.45
2018-12-07T05:53:07.423Z,81.45
2018-12-07T05:55:37.030Z,80.46
2018-12-07T05:58:06.808Z,81.06
2018-12-07T06:00:36.344Z,81.90
2018-12-07T06:03:06.060Z,81.43
2018-12-07T06:05:35.821Z,82.62
2018-12-07T06:08:05.153Z,81.94
2018-12-07T06:10:34.778Z,81.12
2018-12-07T06:13:05.560Z,80.53
2018-12-07T06:15:35.033Z,79.96
2018-12-07T06:18:04.552Z,79.53
2018-12-07T06:20:34.427Z,80.03
2018-12-07T06:23:03.866Z,80.28
2018-12-07T06:25:33.314Z,80.12
2018-12-07T06:28:02.863Z,80.48
2018-12-07T06:30:32.257Z,80.21
2018-12-07T06:33:01.821Z,79.92
2018-12-07T06:35:31.488Z,80.50
2018-12-07T06:38:01.209Z,80.22
2018-12-07T06:40:30.840Z,79.73
2018-12-07T06:43:00.512Z,80.00
2018-12-07T06:45:29.957Z,80.95
2018-12-07T06:47:59.463Z,80.82
2018-12-07T06:50:28.909Z,80.77
2018-12-07T06:52:58.342Z,80.81
2018-12-07T06:55:28.189Z,80.22
2018-12-07T06:57:57.664Z,77.93
2018-12-07T07:00:27.172Z,76.16
2018-12-07T07:02:57.095Z,75.71
2018-12-07T07:05:26.634Z,76.02
2018-12-07T07:07:56.378Z,75.38
2018-12-07T07:10:25.873Z,76.23
2018-12-07T07:12:55.320Z,76.55
2018-12-07T07:15:24.773Z,76.83
2018-12-07T07:17:54.361Z,77.37
2018-12-07T07:20:23.888Z,77.24
2018-12-07T07:22:53.889Z,76.91
2018-12-07T07:25:24.389Z,76.89
2018-12-07T07:27:54.245Z,77.05
2018-12-07T07:30:24.707Z,76.31
2018-12-07T07:32:54.370Z,75.95
2018-12-07T07:35:23.880Z,75.42
2018-12-07T07:37:53.378Z,75.70
2018-12-07T07:40:22.872Z,76.19
2018-12-07T07:42:52.334Z,76.52
2018-12-07T07:45:21.866Z,75.97
2018-12-07T07:47:51.373Z,74.74
2018-12-07T07:50:20.916Z,73.91
2018-12-07T07:52:50.386Z,73.60
2018-12-07T07:55:20.054Z,73.09
2018-12-07T07:57:49.648Z,72.22
2018-12-07T08:00:19.433Z,71.62
2018-12-07T08:02:48.964Z,71.12
2018-12-07T08:05:18.460Z,70.61
2018-12-07T08:07:48.125Z,68.85
2018-12-07T08:10:17.759Z,67.00
2018-12-07T08:12:47.510Z,66.73
2018-12-07T08:15:16.857Z,67.28
2018-12-07T08:17:46.392Z,68.31
2018-12-07T08:20:15.972Z,68.03
2018-12-07T08:22:45.612Z,67.72
2018-12-07T08:25:15.000Z,67.36
2018-12-07T08:27:44.425Z,66.81
2018-12-07T08:30:14.094Z,65.28
2018-12-07T08:32:43.444Z,63.98
2018-12-07T08:35:12.853Z,63.64
2018-12-07T08:37:42.412Z,63.66
2018-12-07T08:40:12.049Z,62.84
2018-12-07T08:42:41.464Z,63.00
2018-12-07T08:45:11.322Z,62.04
2018-12-07T08:47:40.901Z,62.44
2018-12-07T08:50:10.797Z,60.05
2018-12-07T08:52:40.103Z,59.44
2018-12-07T08:55:09.505Z,58.53
2018-12-07T08:57:38.742Z,58.22
2018-12-07T09:00:10.348Z,59.19
2018-12-07T09:02:40.849Z,57.73
2018-12-07T09:05:10.196Z,57.75
2018-12-07T09:07:39.914Z,56.26
2018-12-07T09:10:09.328Z,56.01
2018-12-07T09:12:38.745Z,54.16
2018-12-07T09:15:08.214Z,53.78
2018-12-07T09:17:37.599Z,53.67
2018-12-07T09:20:08.380Z,54.10
2018-12-07T09:22:37.770Z,54.04
2018-12-07T09:25:08.256Z,54.61
2018-12-07T09:27:37.853Z,53.37
2018-12-07T09:30:07.280Z,52.35
2018-12-07T09:32:36.929Z,51.91
2018-12-07T09:35:06.988Z,52.09
2018-12-07T09:37:36.349Z,52.74
2018-12-07T09:40:06.039Z,51.29
2018-12-07T09:42:35.300Z,51.81
2018-12-07T09:45:05.916Z,51.73
2018-12-07T09:47:35.533Z,52.73
2018-12-07T09:50:05.757Z,53.69
2018-12-07T09:52:35.284Z,52.48
2018-12-07T09:55:05.212Z,52.74
2018-12-07T09:57:34.652Z,52.30
2018-12-07T10:00:04.545Z,52.44
2018-12-07T10:02:34.296Z,51.62
2018-12-07T10:05:03.861Z,51.03
2018-12-07T10:07:33.405Z,50.07
2018-12-07T10:10:02.811Z,48.43
2018-12-07T10:12:32.544Z,47.62
2018-12-07T10:15:01.999Z,46.79
2018-12-07T10:17:31.431Z,45.13
2018-12-07T10:20:00.960Z,44.29
2018-12-07T10:22:30.553Z,43.74
2018-12-07T10:24:59.854Z,44.77
2018-12-07T10:27:29.737Z,44.84
2018-12-07T10:29:59.297Z,44.42
2018-12-07T10:32:28.716Z,43.96
2018-12-07T10:34:58.035Z,44.07
2018-12-07T10:37:27.436Z,42.58
2018-12-07T10:39:56.850Z,42.34
2018-12-07T10:42:26.249Z,41.51
2018-12-07T10:44:55.575Z,42.19
2018-12-07T10:47:25.105Z,41.00
2018-12-07T10:49:54.792Z,40.72
2018-12-07T10:52:24.266Z,38.84
2018-12-07T10:54:53.786Z,38.96
2018-12-07T10:57:23.269Z,38.31
2018-12-07T10:59:52.818Z,38.46
2018-12-07T11:03:25.341Z,38.88
2018-12-07T11:05:59.945Z,40.70
2018-12-07T11:08:34.702Z,40.96
2018-12-07T11:11:09.193Z,41.15
2018-12-07T11:14:12.143Z,41.39
2018-12-07T11:16:47.189Z,40.32
2018-12-07T11:19:21.956Z,41.54
2018-12-07T11:21:56.524Z,40.27
2018-12-07T11:24:31.256Z,40.50
2018-12-07T11:27:05.850Z,40.88
2018-12-07T11:29:40.405Z,41.13
2018-12-07T11:35:09.432Z,42.57
2018-12-07T11:37:39.006Z,40.93
2018-12-07T11:40:09.012Z,41.28
2018-12-07T11:42:40.431Z,40.46
2018-12-07T11:45:10.127Z,40.57
2018-12-07T11:47:39.839Z,39.43
2018-12-07T11:50:10.413Z,39.50
2018-12-07T11:52:39.685Z,39.14
2018-12-07T11:55:09.282Z,38.72
2018-12-07T11:57:40.036Z,39.06
2018-12-07T12:00:10.156Z,39.13
2018-12-07T12:02:39.841Z,38.13
2018-12-07T12:05:09.408Z,37.94
2018-12-07T12:07:38.949Z,37.31
2018-12-07T12:10:08.545Z,36.99
2018-12-07T12:12:40.309Z,35.52
2018-12-07T12:15:09.672Z,36.00
2018-12-07T12:17:39.106Z,36.19
2018-12-07T12:20:09.650Z,36.38
2018-12-07T12:22:39.216Z,36.92
2018-12-07T12:25:08.726Z,36.78
2018-12-07T12:27:38.341Z,35.17
2018-12-07T12:30:08.610Z,34.69
2018-12-07T12:32:37.984Z,34.09
2018-12-07T12:35:07.842Z,34.49
2018-12-07T12:37:37.531Z,33.48
2018-12-07T12:40:06.934Z,33.59
2018-12-07T12:42:36.486Z,32.68
2018-12-07T12:45:06.350Z,31.86
2018-12-07T12:47:35.636Z,31.69
2018-12-07T12:50:08.219Z,32.09
2018-12-07T12:52:37.850Z,31.77
2018-12-07T12:55:07.301Z,32.23
2018-12-07T12:57:36.945Z,32.66
2018-12-07T13:00:06.781Z,31.71
2018-12-07T13:02:36.422Z,32.04
2018-12-07T13:05:06.308Z,31.65
2018-12-07T13:07:36.820Z,30.75
2018-12-07T13:10:06.629Z,31.50
2018-12-07T13:12:36.166Z,31.51
2018-12-07T13:15:06.459Z,31.39
2018-12-07T13:17:35.748Z,30.79
2018-12-07T13:20:06.262Z,30.42
2018-12-07T13:22:35.860Z,30.50
2018-12-07T13:25:05.903Z,30.44
2018-12-07T13:27:35.525Z,30.59
2018-12-07T13:30:05.584Z,31.46
2018-12-07T13:32:35.273Z,31.91
2018-12-07T13:35:04.824Z,32.52
2018-12-07T13:37:34.069Z,33.27
2018-12-07T13:40:04.393Z,33.11
2018-12-07T13:42:34.563Z,32.75
2018-12-07T13:45:04.705Z,32.50
2018-12-07T13:47:34.711Z,32.86
2018-12-07T13:50:10.299Z,31.95
2018-12-07T13:52:39.952Z,32.61
2018-12-07T13:55:09.602Z,33.78
2018-12-07T13:57:41.415Z,36.35
2018-12-07T14:00:11.531Z,34.85
2018-12-07T14:02:41.263Z,34.67
2018-12-07T14:05:10.989Z,34.14
2018-12-07T14:07:40.752Z,35.22
2018-12-07T14:10:10.570Z,37.19
2018-12-07T14:12:40.472Z,38.22
2018-12-07T14:15:10.650Z,38.18
2018-12-07T14:17:40.366Z,38.69
2018-12-07T14:20:10.673Z,38.22
2018-12-07T14:22:40.326Z,38.09
2018-12-07T14:25:09.929Z,37.63
2018-12-07T14:27:39.819Z,37.42
2018-12-07T14:30:10.997Z,37.80
2018-12-07T14:32:40.774Z,38.51
2018-12-07T14:35:10.646Z,41.33
2018-12-07T14:37:40.258Z,42.50
2018-12-07T14:40:09.900Z,41.28
2018-12-07T14:42:39.465Z,44.22
2018-12-07T14:45:09.602Z,45.35
2018-12-07T14:47:40.551Z,47.01
2018-12-07T14:50:10.221Z,48.11
2018-12-07T14:52:39.962Z,49.83
2018-12-07T14:55:09.264Z,48.78
2018-12-07T14:57:38.641Z,47.21
2018-12-07T15:00:09.441Z,46.94
2018-12-07T15:02:39.242Z,40.40
2018-12-07T15:05:08.646Z,46.23
2018-12-07T15:07:38.265Z,44.77
2018-12-07T15:10:09.167Z,45.54
2018-12-07T15:12:39.160Z,41.83
2018-12-07T15:15:09.233Z,44.67
2018-12-07T15:17:38.935Z,45.04
2018-12-07T15:20:09.847Z,45.08
2018-12-07T15:22:39.604Z,44.72
2018-12-07T15:25:09.392Z,43.87
2018-12-07T15:27:38.822Z,43.09
2018-12-07T15:30:09.892Z,46.03
2018-12-07T15:32:40.593Z,48.39
2018-12-07T15:35:10.168Z,49.17
2018-12-07T15:37:40.065Z,50.34
2018-12-07T15:40:10.913Z,50.89
2018-12-07T15:42:40.677Z,51.23
2018-12-07T15:45:10.554Z,51.53
2018-12-07T15:47:40.480Z,52.44
2018-12-07T15:50:10.377Z,52.74
2018-12-07T15:52:40.014Z,53.50
2018-12-07T15:55:10.182Z,54.79
2018-12-07T15:57:40.174Z,54.98
2018-12-07T16:00:10.245Z,55.63
2018-12-07T16:02:39.965Z,55.85
2018-12-07T16:05:09.573Z,56.29
2018-12-07T16:07:39.366Z,56.21
2018-12-07T16:10:09.880Z,56.28
2018-12-07T16:12:39.537Z,56.68
2018-12-07T16:15:09.298Z,57.11
2018-12-07T16:17:38.934Z,57.48
2018-12-07T16:20:13.393Z,57.70
2018-12-07T16:22:43.105Z,58.24
2018-12-07T16:25:12.440Z,58.04
2018-12-07T16:27:42.040Z,58.30
2018-12-07T16:30:11.767Z,60.17
2018-12-07T16:32:41.610Z,61.39
2018-12-07T16:35:11.453Z,62.88
2018-12-07T16:37:41.221Z,63.44
2018-12-07T16:40:11.084Z,64.42
2018-12-07T16:42:40.508Z,64.55
2018-12-07T16:45:10.117Z,64.68
2018-12-07T16:47:39.783Z,65.46
2018-12-07T16:50:09.247Z,66.46
2018-12-07T16:52:39.190Z,66.64
2018-12-07T16:55:08.951Z,66.62
2018-12-07T16:57:38.746Z,66.62
2018-12-07T17:00:09.238Z,65.25
2018-12-07T17:02:39.161Z,64.81
2018-12-07T17:05:10.114Z,64.90
2018-12-07T17:07:39.751Z,65.07
2018-12-07T17:10:09.491Z,64.37
2018-12-07T17:12:39.339Z,64.21
2018-12-07T17:15:09.264Z,63.78
2018-12-07T17:17:39.094Z,65.33
2018-12-07T17:20:09.117Z,67.56
2018-12-07T17:22:38.811Z,66.33
2018-12-07T17:25:08.890Z,65.78
2018-12-07T17:27:38.739Z,66.04
2018-12-07T17:30:08.425Z,67.84
2018-12-07T17:32:38.276Z,66.85
2018-12-07T17:35:07.981Z,66.44
2018-12-07T17:37:37.395Z,65.17
2018-12-07T17:40:07.763Z,67.38
2018-12-07T17:42:37.429Z,67.47
2018-12-07T17:45:07.499Z,67.64
2018-12-07T17:47:37.242Z,68.69
2018-12-07T17:50:09.021Z,67.78
2018-12-07T17:52:39.206Z,66.38
2018-12-07T17:55:08.901Z,65.00
2018-12-07T17:57:38.678Z,67.83
2018-12-07T18:00:11.335Z,68.55
2018-12-07T18:02:41.201Z,67.40
2018-12-07T18:05:10.628Z,68.50
2018-12-07T18:07:40.381Z,67.55
2018-12-07T18:10:10.540Z,67.03
2018-12-07T18:12:39.896Z,66.95
2018-12-07T18:15:10.878Z,66.98
2018-12-07T18:17:41.123Z,67.45
2018-12-07T18:20:10.677Z,67.32
2018-12-07T18:22:40.488Z,67.17
2018-12-07T18:25:09.881Z,69.23
2018-12-07T18:27:39.755Z,70.08
2018-12-07T18:30:09.571Z,69.92
2018-12-07T18:32:39.148Z,70.85
2018-12-07T18:35:09.535Z,71.73
2018-12-07T18:37:38.941Z,71.37
2018-12-07T18:40:09.245Z,71.45
2018-12-07T18:42:39.069Z,71.15
2018-12-07T18:45:09.096Z,70.30
2018-12-07T18:47:38.951Z,70.97
2018-12-07T18:50:09.586Z,70.88
2018-12-07T18:52:39.167Z,71.93
2018-12-07T18:55:10.655Z,71.42
2018-12-07T18:57:40.310Z,71.02
2018-12-07T19:00:10.308Z,71.43
2018-12-07T19:02:46.321Z,72.08
2018-12-07T19:05:15.663Z,71.12
2018-12-07T19:07:45.419Z,71.42
2018-12-07T19:10:15.608Z,71.02
2018-12-07T19:12:45.396Z,70.51
2018-12-07T19:15:14.842Z,71.11
2018-12-07T19:17:44.525Z,70.82
2018-12-07T19:20:14.344Z,71.59
2018-12-07T19:22:43.940Z,72.65
2018-12-07T19:25:13.766Z,71.38
2018-12-07T19:27:43.625Z,72.29
2018-12-07T19:30:14.790Z,72.87
2018-12-07T19:32:46.274Z,73.59
2018-12-07T19:35:15.880Z,74.00
2018-12-07T19:37:45.487Z,73.96
2018-12-07T19:40:15.159Z,73.88
2018-12-07T19:42:44.746Z,73.35
2018-12-07T19:45:14.558Z,72.05
2018-12-07T19:47:44.270Z,72.59
2018-12-07T19:50:13.761Z,72.61
2018-12-07T19:52:43.638Z,71.74
2018-12-07T19:55:13.508Z,72.13
2018-12-07T19:57:43.518Z,71.48
2018-12-07T20:00:14.092Z,70.84
2018-12-07T20:02:44.187Z,71.40
2018-12-07T20:05:14.084Z,71.28
2018-12-07T20:07:43.388Z,71.66
2018-12-07T20:10:13.107Z,72.30
2018-12-07T20:12:43.358Z,71.34
2018-12-07T20:15:13.327Z,72.29
2018-12-07T20:17:43.207Z,72.53
2018-12-07T20:20:13.158Z,73.30
2018-12-07T20:22:42.569Z,73.77
2018-12-07T20:25:12.411Z,73.16
2018-12-07T20:27:42.289Z,73.31
2018-12-07T20:30:12.558Z,74.16
2018-12-07T20:32:43.547Z,73.76
2018-12-07T20:35:13.480Z,73.38
2018-12-07T20:37:42.944Z,73.50
2018-12-07T20:40:12.396Z,73.27
2018-12-07T20:42:42.579Z,73.86
2018-12-07T20:45:12.286Z,73.83
2018-12-07T20:47:42.233Z,72.58
2018-12-07T20:50:12.389Z,72.17
2018-12-07T20:52:42.233Z,72.89
2018-12-07T20:55:12.410Z,71.54
2018-12-07T20:57:41.905Z,70.91
2018-12-07T21:00:11.917Z,71.71
2018-12-07T21:02:42.073Z,72.03
2018-12-07T21:05:59.076Z,71.33
2018-12-07T21:09:32.726Z,71.30
2018-12-07T21:12:09.804Z,71.86
2018-12-07T21:14:44.213Z,71.45
2018-12-07T21:17:23.682Z,71.27
2018-12-07T21:19:57.629Z,71.70
2018-12-07T21:22:27.718Z,71.27
2018-12-07T21:24:57.248Z,70.59
2018-12-07T21:27:26.923Z,70.84
2018-12-07T21:32:58.517Z,69.94
2018-12-07T21:35:27.964Z,69.21
2018-12-07T21:37:57.527Z,69.34
2018-12-07T21:40:30.496Z,71.11
2018-12-07T21:43:00.171Z,70.13
2018-12-07T21:45:30.181Z,69.62
2018-12-07T21:48:21.746Z,69.73
2018-12-07T21:50:56.993Z,69.59
2018-12-07T21:53:27.126Z,69.95
2018-12-07T21:55:56.509Z,70.20
2018-12-07T21:58:26.037Z,70.07
2018-12-07T22:00:55.646Z,70.73
2018-12-07T22:03:25.156Z,70.37
2018-12-07T22:05:55.116Z,70.75
2018-12-07T22:08:24.977Z,70.74
2018-12-07T22:10:54.844Z,71.36
2018-12-07T22:13:24.437Z,71.23
2018-12-07T22:15:54.041Z,72.01
2018-12-07T22:18:23.576Z,71.41
2018-12-07T22:20:53.088Z,71.54
2018-12-07T22:23:23.057Z,72.21
2018-12-07T22:25:52.932Z,71.77
2018-12-07T22:28:22.492Z,72.45
2018-12-07T22:30:51.912Z,72.66
2018-12-07T22:33:21.301Z,73.74
2018-12-07T22:35:50.641Z,73.59
2018-12-07T22:38:20.322Z,73.12
2018-12-07T22:40:50.140Z,73.40
2018-12-07T22:43:19.930Z,74.29
2018-12-07T22:45:49.677Z,72.78
2018-12-07T22:48:19.366Z,73.45
2018-12-07T22:50:48.809Z,73.10
2018-12-07T22:53:18.289Z,73.34
2018-12-07T22:55:47.744Z,73.75
2018-12-07T22:58:17.135Z,73.86
2018-12-07T23:00:48.497Z,74.31
2018-12-07T23:03:18.733Z,74.27
2018-12-07T23:05:48.463Z,76.34
2018-12-07T23:08:18.346Z,76.79
2018-12-07T23:10:47.746Z,75.44
2018-12-07T23:13:17.219Z,76.46
2018-12-07T23:15:46.762Z,75.83
2018-12-07T23:18:16.164Z,75.13
2018-12-07T23:20:45.713Z,76.37
2018-12-07T23:23:15.156Z,76.47
2018-12-07T23:25:44.890Z,77.07
2018-12-07T23:28:19.438Z,78.00
2018-12-07T23:30:45.907Z,77.76
2018-12-07T23:33:15.677Z,78.08
2018-12-07T23:35:45.262Z,77.63
2018-12-07T23:38:14.629Z,78.01
2018-12-07T23:40:44.079Z,76.77
2018-12-07T23:43:13.585Z,76.26
2018-12-07T23:45:43.354Z,75.97
2018-12-07T23:48:13.000Z,76.13
2018-12-07T23:50:42.496Z,76.54
2018-12-07T23:53:12.150Z,77.02
2018-12-07T23:55:41.549Z,77.08
2018-12-07T23:58:10.945Z,77.00
